sensor_id;sensor_type;location;lat;lon;timestamp;pressure;altitude;pressure_sealevel;temperature;humidity
43125;BME280;49182;50.788;7.318;2023-02-25T00:01:37;99892.53;;;4.63;90.52
43125;BME280;49182;50.788;7.318;2023-02-25T00:04:03;99888.94;;;4.64;90.24
43125;BME280;49182;50.788;7.318;2023-02-25T00:06:30;99886.69;;;4.59;90.11
43125;BME280;49182;50.788;7.318;2023-02-25T00:08:57;99900.25;;;4.64;89.27
43125;BME280;49182;50.788;7.318;2023-02-25T00:11:25;99891.56;;;4.64;89.61
43125;BME280;49182;50.788;7.318;2023-02-25T00:13:52;99892.75;;;4.60;89.15
43125;BME280;49182;50.788;7.318;2023-02-25T00:16:20;99894.53;;;4.59;89.55
43125;BME280;49182;50.788;7.318;2023-02-25T00:18:52;99883.59;;;4.54;89.53
43125;BME280;49182;50.788;7.318;2023-02-25T00:21:18;99894.16;;;4.53;89.26
43125;BME280;49182;50.788;7.318;2023-02-25T00:23:47;99892.38;;;4.53;88.97
43125;BME280;49182;50.788;7.318;2023-02-25T00:26:16;99899.03;;;4.57;89.31
43125;BME280;49182;50.788;7.318;2023-02-25T00:28:45;99904.88;;;4.61;88.51
43125;BME280;49182;50.788;7.318;2023-02-25T00:31:14;99903.00;;;4.63;88.12
43125;BME280;49182;50.788;7.318;2023-02-25T00:33:41;99917.56;;;4.54;88.19
43125;BME280;49182;50.788;7.318;2023-02-25T00:36:09;99900.22;;;4.53;87.75
43125;BME280;49182;50.788;7.318;2023-02-25T00:38:37;99910.78;;;4.52;88.47
43125;BME280;49182;50.788;7.318;2023-02-25T00:41:05;99914.66;;;4.46;87.99
43125;BME280;49182;50.788;7.318;2023-02-25T00:43:34;99874.38;;;4.14;88.82
43125;BME280;49182;50.788;7.318;2023-02-25T00:46:02;99908.34;;;4.37;88.33
43125;BME280;49182;50.788;7.318;2023-02-25T00:48:30;99900.19;;;4.42;88.08
43125;BME280;49182;50.788;7.318;2023-02-25T00:51:03;99866.44;;;4.15;88.30
43125;BME280;49182;50.788;7.318;2023-02-25T00:53:30;99899.09;;;4.44;87.98
43125;BME280;49182;50.788;7.318;2023-02-25T00:55:58;99905.50;;;4.40;89.05
43125;BME280;49182;50.788;7.318;2023-02-25T00:58:25;99907.19;;;4.41;88.76
43125;BME280;49182;50.788;7.318;2023-02-25T01:00:51;99902.16;;;4.38;88.48
43125;BME280;49182;50.788;7.318;2023-02-25T01:03:20;99881.09;;;4.29;88.76
43125;BME280;49182;50.788;7.318;2023-02-25T01:05:46;99899.78;;;4.35;89.34
43125;BME280;49182;50.788;7.318;2023-02-25T01:08:14;99899.88;;;4.34;88.64
43125;BME280;49182;50.788;7.318;2023-02-25T01:10:40;99900.72;;;4.34;88.40
43125;BME280;49182;50.788;7.318;2023-02-25T01:13:07;99902.28;;;4.37;87.95
43125;BME280;49182;50.788;7.318;2023-02-25T01:15:34;99907.53;;;4.37;89.03
43125;BME280;49182;50.788;7.318;2023-02-25T01:18:01;99902.06;;;4.40;88.66
43125;BME280;49182;50.788;7.318;2023-02-25T01:20:29;99898.13;;;4.34;88.02
43125;BME280;49182;50.788;7.318;2023-02-25T01:22:56;99903.34;;;4.34;88.63
43125;BME280;49182;50.788;7.318;2023-02-25T01:25:22;99883.72;;;4.29;88.81
43125;BME280;49182;50.788;7.318;2023-02-25T01:27:49;99872.53;;;4.27;89.02
43125;BME280;49182;50.788;7.318;2023-02-25T01:30:16;99900.56;;;4.48;88.26
43125;BME280;49182;50.788;7.318;2023-02-25T01:32:43;99896.63;;;4.43;88.64
43125;BME280;49182;50.788;7.318;2023-02-25T01:35:10;99900.56;;;4.48;89.18
43125;BME280;49182;50.788;7.318;2023-02-25T01:37:38;99892.69;;;4.37;88.67
43125;BME280;49182;50.788;7.318;2023-02-25T01:40:05;99888.16;;;4.39;89.23
43125;BME280;49182;50.788;7.318;2023-02-25T01:42:33;99866.09;;;4.20;89.48
43125;BME280;49182;50.788;7.318;2023-02-25T01:45:26;99904.13;;;4.47;88.87
43125;BME280;49182;50.788;7.318;2023-02-25T01:47:57;99916.00;;;4.52;89.17
43125;BME280;49182;50.788;7.318;2023-02-25T01:50:32;99914.56;;;4.47;88.80
43125;BME280;49182;50.788;7.318;2023-02-25T01:53:03;99905.59;;;4.39;88.84
43125;BME280;49182;50.788;7.318;2023-02-25T01:55:32;99912.63;;;4.38;89.65
43125;BME280;49182;50.788;7.318;2023-02-25T01:57:59;99913.13;;;4.43;89.24
43125;BME280;49182;50.788;7.318;2023-02-25T02:00:27;99909.53;;;4.44;89.50
43125;BME280;49182;50.788;7.318;2023-02-25T02:02:56;99904.31;;;4.44;90.19
43125;BME280;49182;50.788;7.318;2023-02-25T02:05:33;99905.75;;;4.37;89.42
43125;BME280;49182;50.788;7.318;2023-02-25T02:08:04;99882.00;;;4.17;89.08
43125;BME280;49182;50.788;7.318;2023-02-25T02:10:31;99908.94;;;4.41;89.05
43125;BME280;49182;50.788;7.318;2023-02-25T02:12:58;99905.16;;;4.45;89.04
43125;BME280;49182;50.788;7.318;2023-02-25T02:15:27;99911.81;;;4.38;88.89
43125;BME280;49182;50.788;7.318;2023-02-25T02:17:59;99902.00;;;4.29;88.85
43125;BME280;49182;50.788;7.318;2023-02-25T02:20:31;99899.78;;;4.35;88.64
43125;BME280;49182;50.788;7.318;2023-02-25T02:23:28;99911.66;;;4.39;88.40
43125;BME280;49182;50.788;7.318;2023-02-25T02:26:31;99906.22;;;4.42;89.08
43125;BME280;49182;50.788;7.318;2023-02-25T02:29:41;99906.78;;;4.35;88.55
43125;BME280;49182;50.788;7.318;2023-02-25T02:32:16;99903.06;;;4.26;88.98
43125;BME280;49182;50.788;7.318;2023-02-25T02:34:50;99882.28;;;4.25;88.24
43125;BME280;49182;50.788;7.318;2023-02-25T02:37:27;99906.59;;;4.38;88.46
43125;BME280;49182;50.788;7.318;2023-02-25T02:40:04;99919.97;;;4.33;88.16
43125;BME280;49182;50.788;7.318;2023-02-25T02:42:39;99902.47;;;4.23;88.31
43125;BME280;49182;50.788;7.318;2023-02-25T02:45:14;99913.91;;;4.33;87.80
43125;BME280;49182;50.788;7.318;2023-02-25T02:47:45;99897.22;;;4.23;87.94
43125;BME280;49182;50.788;7.318;2023-02-25T02:50:18;99921.13;;;4.29;87.90
43125;BME280;49182;50.788;7.318;2023-02-25T02:52:50;99917.63;;;4.18;87.75
43125;BME280;49182;50.788;7.318;2023-02-25T02:55:18;99919.03;;;4.11;88.51
43125;BME280;49182;50.788;7.318;2023-02-25T02:57:49;99922.69;;;4.08;88.96
43125;BME280;49182;50.788;7.318;2023-02-25T03:00:21;99914.28;;;4.16;88.70
43125;BME280;49182;50.788;7.318;2023-02-25T03:02:51;99921.19;;;4.17;88.61
43125;BME280;49182;50.788;7.318;2023-02-25T03:05:20;99867.91;;;3.83;89.42
43125;BME280;49182;50.788;7.318;2023-02-25T03:07:52;99921.19;;;4.17;89.10
43125;BME280;49182;50.788;7.318;2023-02-25T03:10:21;99919.34;;;4.06;89.29
43125;BME280;49182;50.788;7.318;2023-02-25T03:12:50;99920.91;;;4.08;89.32
43125;BME280;49182;50.788;7.318;2023-02-25T03:15:19;99920.41;;;4.03;89.29
43125;BME280;49182;50.788;7.318;2023-02-25T03:17:51;99911.56;;;3.93;89.34
43125;BME280;49182;50.788;7.318;2023-02-25T03:20:25;99927.75;;;3.98;88.98
43125;BME280;49182;50.788;7.318;2023-02-25T03:22:57;99903.94;;;3.90;89.09
43125;BME280;49182;50.788;7.318;2023-02-25T03:25:26;99922.19;;;4.03;88.98
43125;BME280;49182;50.788;7.318;2023-02-25T03:27:56;99925.28;;;4.08;88.81
43125;BME280;49182;50.788;7.318;2023-02-25T03:30:29;99912.91;;;3.99;88.60
43125;BME280;49182;50.788;7.318;2023-02-25T03:33:02;99927.91;;;4.08;89.13
43125;BME280;49182;50.788;7.318;2023-02-25T03:35:33;99875.44;;;3.63;89.45
43125;BME280;49182;50.788;7.318;2023-02-25T03:38:03;99918.66;;;3.91;89.36
43125;BME280;49182;50.788;7.318;2023-02-25T03:40:34;99901.75;;;3.84;88.71
43125;BME280;49182;50.788;7.318;2023-02-25T03:43:05;99869.53;;;3.73;88.58
43125;BME280;49182;50.788;7.318;2023-02-25T03:45:36;99895.00;;;3.82;88.64
43125;BME280;49182;50.788;7.318;2023-02-25T03:48:07;99919.06;;;3.98;88.33
43125;BME280;49182;50.788;7.318;2023-02-25T03:50:37;99927.69;;;4.11;89.35
43125;BME280;49182;50.788;7.318;2023-02-25T03:53:08;99936.47;;;4.10;88.69
43125;BME280;49182;50.788;7.318;2023-02-25T03:55:51;99907.69;;;3.99;88.60
43125;BME280;49182;50.788;7.318;2023-02-25T03:58:18;99929.81;;;4.06;88.32
43125;BME280;49182;50.788;7.318;2023-02-25T04:00:47;99936.06;;;4.03;88.24
43125;BME280;49182;50.788;7.318;2023-02-25T04:03:18;99936.06;;;4.03;88.47
43125;BME280;49182;50.788;7.318;2023-02-25T04:05:44;99935.47;;;4.00;88.18
43125;BME280;49182;50.788;7.318;2023-02-25T04:08:11;99940.47;;;4.03;88.23
43125;BME280;49182;50.788;7.318;2023-02-25T04:10:38;99940.78;;;3.98;88.36
43125;BME280;49182;50.788;7.318;2023-02-25T04:13:04;99944.63;;;4.05;87.56
43125;BME280;49182;50.788;7.318;2023-02-25T04:15:31;99940.97;;;4.08;87.96
43125;BME280;49182;50.788;7.318;2023-02-25T04:17:57;99915.44;;;3.88;88.19
43125;BME280;49182;50.788;7.318;2023-02-25T04:20:26;99938.19;;;3.98;88.21
43125;BME280;49182;50.788;7.318;2023-02-25T04:22:52;99943.50;;;3.97;87.83
43125;BME280;49182;50.788;7.318;2023-02-25T04:25:20;99916.50;;;3.85;88.38
43125;BME280;49182;50.788;7.318;2023-02-25T04:27:46;99838.44;;;3.33;88.82
43125;BME280;49182;50.788;7.318;2023-02-25T04:30:15;99941.72;;;3.97;89.09
43125;BME280;49182;50.788;7.318;2023-02-25T04:32:42;99939.13;;;3.97;88.79
43125;BME280;49182;50.788;7.318;2023-02-25T04:35:09;99893.56;;;3.65;89.15
43125;BME280;49182;50.788;7.318;2023-02-25T04:37:38;99943.63;;;3.83;89.83
43125;BME280;49182;50.788;7.318;2023-02-25T04:40:05;99953.44;;;3.92;89.59
43125;BME280;49182;50.788;7.318;2023-02-25T04:42:32;99957.09;;;3.89;90.28
43125;BME280;49182;50.788;7.318;2023-02-25T04:44:59;99958.25;;;3.98;90.00
43125;BME280;49182;50.788;7.318;2023-02-25T04:47:25;99960.94;;;3.96;90.54
43125;BME280;49182;50.788;7.318;2023-02-25T04:49:52;99961.72;;;3.86;91.09
43125;BME280;49182;50.788;7.318;2023-02-25T04:52:19;99959.31;;;3.83;91.51
43125;BME280;49182;50.788;7.318;2023-02-25T04:54:47;99956.50;;;3.86;91.52
43125;BME280;49182;50.788;7.318;2023-02-25T04:57:14;99953.16;;;3.84;92.21
43125;BME280;49182;50.788;7.318;2023-02-25T04:59:41;99963.50;;;3.85;91.73
43125;BME280;49182;50.788;7.318;2023-02-25T05:02:09;99956.16;;;3.90;91.38
43125;BME280;49182;50.788;7.318;2023-02-25T05:04:36;99964.63;;;3.94;91.40
43125;BME280;49182;50.788;7.318;2023-02-25T05:07:04;99954.88;;;3.96;91.05
43125;BME280;49182;50.788;7.318;2023-02-25T05:09:31;99945.41;;;3.95;90.80
43125;BME280;49182;50.788;7.318;2023-02-25T05:12:00;99948.84;;;3.95;90.96
43125;BME280;49182;50.788;7.318;2023-02-25T05:14:27;99947.06;;;3.96;90.96
43125;BME280;49182;50.788;7.318;2023-02-25T05:16:55;99954.78;;;3.97;91.22
43125;BME280;49182;50.788;7.318;2023-02-25T05:19:23;99933.09;;;3.84;91.66
43125;BME280;49182;50.788;7.318;2023-02-25T05:21:51;99939.66;;;3.90;91.04
43125;BME280;49182;50.788;7.318;2023-02-25T05:24:19;99940.06;;;3.96;91.16
43125;BME280;49182;50.788;7.318;2023-02-25T05:26:46;99935.50;;;3.87;91.50
43125;BME280;49182;50.788;7.318;2023-02-25T05:29:13;99929.94;;;3.92;91.15
43125;BME280;49182;50.788;7.318;2023-02-25T05:31:40;99923.50;;;3.85;91.14
43125;BME280;49182;50.788;7.318;2023-02-25T05:34:07;99960.00;;;3.97;90.91
43125;BME280;49182;50.788;7.318;2023-02-25T05:36:34;99949.16;;;3.91;90.96
43125;BME280;49182;50.788;7.318;2023-02-25T05:39:00;99928.59;;;3.86;90.65
43125;BME280;49182;50.788;7.318;2023-02-25T05:41:27;99940.50;;;3.90;90.18
43125;BME280;49182;50.788;7.318;2023-02-25T05:43:54;99937.69;;;3.93;90.65
43125;BME280;49182;50.788;7.318;2023-02-25T05:46:23;99933.19;;;3.83;90.48
43125;BME280;49182;50.788;7.318;2023-02-25T05:48:51;99952.84;;;3.88;90.42
43125;BME280;49182;50.788;7.318;2023-02-25T05:51:19;99948.84;;;3.83;90.67
43125;BME280;49182;50.788;7.318;2023-02-25T05:53:46;99954.91;;;3.83;90.84
43125;BME280;49182;50.788;7.318;2023-02-25T05:56:16;99940.66;;;3.76;90.83
43125;BME280;49182;50.788;7.318;2023-02-25T05:58:43;99954.50;;;3.89;90.84
43125;BME280;49182;50.788;7.318;2023-02-25T06:01:11;99954.50;;;3.89;91.14
43125;BME280;49182;50.788;7.318;2023-02-25T06:03:39;99960.34;;;3.93;90.33
43125;BME280;49182;50.788;7.318;2023-02-25T06:06:07;99953.25;;;3.95;90.50
43125;BME280;49182;50.788;7.318;2023-02-25T06:08:34;99884.41;;;3.47;90.39
43125;BME280;49182;50.788;7.318;2023-02-25T06:11:04;99963.28;;;3.88;89.85
43125;BME280;49182;50.788;7.318;2023-02-25T06:13:31;99973.59;;;3.90;89.38
43125;BME280;49182;50.788;7.318;2023-02-25T06:15:58;99974.94;;;3.95;89.18
43125;BME280;49182;50.788;7.318;2023-02-25T06:18:24;99974.44;;;3.90;90.03
43125;BME280;49182;50.788;7.318;2023-02-25T06:20:52;99975.38;;;3.89;89.79
43125;BME280;49182;50.788;7.318;2023-02-25T06:23:19;99986.78;;;3.88;90.30
43125;BME280;49182;50.788;7.318;2023-02-25T06:25:46;99959.03;;;3.75;89.46
43125;BME280;49182;50.788;7.318;2023-02-25T06:28:13;99984.03;;;3.90;89.28
43125;BME280;49182;50.788;7.318;2023-02-25T06:30:41;99984.28;;;3.87;88.99
43125;BME280;49182;50.788;7.318;2023-02-25T06:33:07;99986.56;;;3.91;89.47
43125;BME280;49182;50.788;7.318;2023-02-25T06:35:35;99984.28;;;3.87;89.79
43125;BME280;49182;50.788;7.318;2023-02-25T06:38:03;99993.56;;;3.91;88.88
43125;BME280;49182;50.788;7.318;2023-02-25T06:40:29;99987.41;;;3.92;88.73
43125;BME280;49182;50.788;7.318;2023-02-25T06:42:56;100003.47;;;3.98;88.96
43125;BME280;49182;50.788;7.318;2023-02-25T06:45:26;99996.47;;;3.99;88.66
43125;BME280;49182;50.788;7.318;2023-02-25T06:47:52;100002.88;;;3.95;88.64
43125;BME280;49182;50.788;7.318;2023-02-25T06:50:19;100010.47;;;3.98;89.15
43125;BME280;49182;50.788;7.318;2023-02-25T06:52:45;100005.66;;;4.04;88.40
43125;BME280;49182;50.788;7.318;2023-02-25T06:55:14;99981.66;;;3.87;88.80
43125;BME280;49182;50.788;7.318;2023-02-25T06:57:40;100010.78;;;4.06;88.59
43125;BME280;49182;50.788;7.318;2023-02-25T07:00:08;100026.75;;;4.01;88.45
43125;BME280;49182;50.788;7.318;2023-02-25T07:02:35;99986.38;;;3.82;88.83
43125;BME280;49182;50.788;7.318;2023-02-25T07:05:01;100023.50;;;4.11;88.09
43125;BME280;49182;50.788;7.318;2023-02-25T07:07:28;100028.72;;;4.11;87.77
43125;BME280;49182;50.788;7.318;2023-02-25T07:09:54;100023.41;;;4.12;87.98
43125;BME280;49182;50.788;7.318;2023-02-25T07:12:23;100029.25;;;4.03;87.73
43125;BME280;49182;50.788;7.318;2023-02-25T07:14:49;100026.53;;;4.04;88.07
43125;BME280;49182;50.788;7.318;2023-02-25T07:17:18;100022.78;;;4.08;87.58
43125;BME280;49182;50.788;7.318;2023-02-25T07:19:44;100028.00;;;4.08;87.73
43125;BME280;49182;50.788;7.318;2023-02-25T07:22:13;100038.84;;;4.15;87.30
43125;BME280;49182;50.788;7.318;2023-02-25T07:24:39;100021.72;;;4.11;86.95
43125;BME280;49182;50.788;7.318;2023-02-25T07:27:06;100045.13;;;4.25;87.19
43125;BME280;49182;50.788;7.318;2023-02-25T07:29:34;100043.94;;;4.29;88.28
43125;BME280;49182;50.788;7.318;2023-02-25T07:32:01;100044.97;;;4.27;87.52
43125;BME280;49182;50.788;7.318;2023-02-25T07:34:28;100000.97;;;3.97;87.29
43125;BME280;49182;50.788;7.318;2023-02-25T07:36:54;100049.59;;;4.23;86.88
43125;BME280;49182;50.788;7.318;2023-02-25T07:39:21;100044.97;;;4.27;87.02
43125;BME280;49182;50.788;7.318;2023-02-25T07:41:49;100044.03;;;4.28;85.86
43125;BME280;49182;50.788;7.318;2023-02-25T07:44:18;100033.94;;;4.23;86.88
43125;BME280;49182;50.788;7.318;2023-02-25T07:46:46;100036.09;;;4.29;85.35
43125;BME280;49182;50.788;7.318;2023-02-25T07:49:13;100048.94;;;4.32;84.69
43125;BME280;49182;50.788;7.318;2023-02-25T07:51:39;100046.97;;;4.36;84.81
43125;BME280;49182;50.788;7.318;2023-02-25T07:54:06;100036.28;;;4.39;85.72
43125;BME280;49182;50.788;7.318;2023-02-25T07:56:32;100036.59;;;4.34;85.73
43125;BME280;49182;50.788;7.318;2023-02-25T07:58:59;100043.34;;;4.26;85.22
43125;BME280;49182;50.788;7.318;2023-02-25T08:01:28;100051.34;;;4.35;85.60
43125;BME280;49182;50.788;7.318;2023-02-25T08:03:58;100038.81;;;4.28;85.37
43125;BME280;49182;50.788;7.318;2023-02-25T08:06:26;100053.19;;;4.46;85.41
43125;BME280;49182;50.788;7.318;2023-02-25T08:08:53;100053.28;;;4.44;84.81
43125;BME280;49182;50.788;7.318;2023-02-25T08:11:21;100061.25;;;4.43;84.47
43125;BME280;49182;50.788;7.318;2023-02-25T08:13:49;100069.28;;;4.53;84.49
43125;BME280;49182;50.788;7.318;2023-02-25T08:16:17;100069.78;;;4.58;84.58
43125;BME280;49182;50.788;7.318;2023-02-25T08:18:45;100050.50;;;4.35;83.36
43125;BME280;49182;50.788;7.318;2023-02-25T08:21:14;100056.16;;;4.41;83.29
43125;BME280;49182;50.788;7.318;2023-02-25T08:23:42;100065.00;;;4.52;82.92
43125;BME280;49182;50.788;7.318;2023-02-25T08:26:09;100053.25;;;4.57;82.70
43125;BME280;49182;50.788;7.318;2023-02-25T08:28:36;100053.00;;;4.49;83.96
43125;BME280;49182;50.788;7.318;2023-02-25T08:31:05;100053.66;;;4.64;83.28
43125;BME280;49182;50.788;7.318;2023-02-25T08:33:32;100059.63;;;4.66;82.50
43125;BME280;49182;50.788;7.318;2023-02-25T08:36:06;100064.00;;;4.65;83.73
43125;BME280;49182;50.788;7.318;2023-02-25T08:38:34;100030.56;;;4.58;83.40
43125;BME280;49182;50.788;7.318;2023-02-25T08:41:01;100073.63;;;4.65;82.37
43125;BME280;49182;50.788;7.318;2023-02-25T08:43:28;100044.16;;;4.63;83.21
43125;BME280;49182;50.788;7.318;2023-02-25T08:45:54;100064.91;;;4.77;82.90
43125;BME280;49182;50.788;7.318;2023-02-25T08:48:22;100060.06;;;4.83;82.33
43125;BME280;49182;50.788;7.318;2023-02-25T08:50:48;100065.47;;;4.93;82.92
43125;BME280;49182;50.788;7.318;2023-02-25T08:53:15;100063.94;;;5.02;82.04
43125;BME280;49182;50.788;7.318;2023-02-25T08:55:43;100063.31;;;4.87;80.87
43125;BME280;49182;50.788;7.318;2023-02-25T08:58:10;100061.19;;;4.92;81.43
43125;BME280;49182;50.788;7.318;2023-02-25T09:00:37;100069.41;;;4.99;80.98
43125;BME280;49182;50.788;7.318;2023-02-25T09:03:04;100078.16;;;5.10;80.83
43125;BME280;49182;50.788;7.318;2023-02-25T09:05:30;100069.22;;;5.13;82.27
43125;BME280;49182;50.788;7.318;2023-02-25T09:07:57;100069.16;;;5.25;80.93
43125;BME280;49182;50.788;7.318;2023-02-25T09:10:24;100057.25;;;5.21;80.50
43125;BME280;49182;50.788;7.318;2023-02-25T09:12:52;100049.03;;;5.26;81.45
43125;BME280;49182;50.788;7.318;2023-02-25T09:15:18;100062.44;;;5.10;80.47
43125;BME280;49182;50.788;7.318;2023-02-25T09:17:45;100068.78;;;4.95;80.03
43125;BME280;49182;50.788;7.318;2023-02-25T09:20:12;100019.94;;;4.72;80.25
43125;BME280;49182;50.788;7.318;2023-02-25T09:22:39;100049.25;;;4.88;82.80
43125;BME280;49182;50.788;7.318;2023-02-25T09:25:06;100067.81;;;4.85;83.31
43125;BME280;49182;50.788;7.318;2023-02-25T09:27:33;100060.06;;;4.83;82.29
43125;BME280;49182;50.788;7.318;2023-02-25T09:30:01;100068.84;;;4.82;82.28
43125;BME280;49182;50.788;7.318;2023-02-25T09:32:28;100076.09;;;4.79;83.47
43125;BME280;49182;50.788;7.318;2023-02-25T09:34:55;100075.59;;;4.74;83.23
43125;BME280;49182;50.788;7.318;2023-02-25T09:37:21;100076.09;;;4.79;84.59
43125;BME280;49182;50.788;7.318;2023-02-25T09:39:48;100083.84;;;4.80;84.81
43125;BME280;49182;50.788;7.318;2023-02-25T09:42:17;100042.50;;;4.62;85.42
43125;BME280;49182;50.788;7.318;2023-02-25T09:44:46;100092.78;;;4.89;84.83
43125;BME280;49182;50.788;7.318;2023-02-25T09:47:18;100094.44;;;4.90;85.45
43125;BME280;49182;50.788;7.318;2023-02-25T09:49:51;100076.69;;;4.82;84.95
43125;BME280;49182;50.788;7.318;2023-02-25T09:52:22;100090.28;;;4.87;85.14
43125;BME280;49182;50.788;7.318;2023-02-25T09:54:54;100090.91;;;4.91;85.53
43125;BME280;49182;50.788;7.318;2023-02-25T09:57:22;100105.16;;;4.87;85.74
43125;BME280;49182;50.788;7.318;2023-02-25T09:59:50;100095.63;;;4.86;86.19
43125;BME280;49182;50.788;7.318;2023-02-25T10:02:24;100061.44;;;4.53;86.51
43125;BME280;49182;50.788;7.318;2023-02-25T10:05:04;100087.94;;;4.72;86.35
43125;BME280;49182;50.788;7.318;2023-02-25T10:07:34;100115.63;;;4.87;86.92
43125;BME280;49182;50.788;7.318;2023-02-25T10:10:05;100108.25;;;4.92;86.48
43125;BME280;49182;50.788;7.318;2023-02-25T10:12:38;100093.13;;;4.84;86.74
43125;BME280;49182;50.788;7.318;2023-02-25T10:15:19;100115.63;;;4.87;87.80
43125;BME280;49182;50.788;7.318;2023-02-25T10:18:03;100133.78;;;4.88;87.53
43125;BME280;49182;50.788;7.318;2023-02-25T10:20:45;100131.31;;;4.87;88.06
43125;BME280;49182;50.788;7.318;2023-02-25T10:23:24;100127.50;;;4.91;89.16
43125;BME280;49182;50.788;7.318;2023-02-25T10:26:11;100117.50;;;4.85;89.76
43125;BME280;49182;50.788;7.318;2023-02-25T10:28:40;100119.13;;;4.99;89.63
43125;BME280;49182;50.788;7.318;2023-02-25T10:31:14;100127.38;;;5.05;89.53
43125;BME280;49182;50.788;7.318;2023-02-25T10:33:45;100064.19;;;4.75;90.32
43125;BME280;49182;50.788;7.318;2023-02-25T10:36:14;100104.06;;;5.13;89.81
43125;BME280;49182;50.788;7.318;2023-02-25T10:38:43;100117.66;;;5.42;91.15
43125;BME280;49182;50.788;7.318;2023-02-25T10:41:10;100120.13;;;5.67;90.83
43125;BME280;49182;50.788;7.318;2023-02-25T10:43:37;100115.94;;;5.76;90.04
43125;BME280;49182;50.788;7.318;2023-02-25T10:46:09;100133.75;;;6.06;89.14
43125;BME280;49182;50.788;7.318;2023-02-25T10:48:39;100131.03;;;6.30;89.06
43125;BME280;49182;50.788;7.318;2023-02-25T10:51:09;100135.84;;;6.47;83.23
43125;BME280;49182;50.788;7.318;2023-02-25T10:53:37;100139.16;;;6.49;83.44
43125;BME280;49182;50.788;7.318;2023-02-25T10:56:05;100132.00;;;6.51;83.10
43125;BME280;49182;50.788;7.318;2023-02-25T10:58:42;100100.09;;;6.35;81.31
43125;BME280;49182;50.788;7.318;2023-02-25T11:01:12;100136.06;;;6.44;80.97
43125;BME280;49182;50.788;7.318;2023-02-25T11:03:45;100141.66;;;6.39;80.41
43125;BME280;49182;50.788;7.318;2023-02-25T11:06:21;100113.66;;;6.29;81.54
43125;BME280;49182;50.788;7.318;2023-02-25T11:08:49;100144.75;;;6.78;81.17
43125;BME280;49182;50.788;7.318;2023-02-25T11:11:19;100137.38;;;7.04;79.78
43125;BME280;49182;50.788;7.318;2023-02-25T11:13:55;100148.00;;;7.13;77.61
43125;BME280;49182;50.788;7.318;2023-02-25T11:16:24;100162.69;;;7.16;77.65
43125;BME280;49182;50.788;7.318;2023-02-25T11:18:54;100174.25;;;7.13;75.64
43125;BME280;49182;50.788;7.318;2023-02-25T11:21:30;100182.41;;;6.77;73.78
43125;BME280;49182;50.788;7.318;2023-02-25T11:23:59;100168.00;;;6.71;72.56
43125;BME280;49182;50.788;7.318;2023-02-25T11:26:29;100148.59;;;6.40;72.60
43125;BME280;49182;50.788;7.318;2023-02-25T11:28:59;100164.06;;;6.32;73.57
43125;BME280;49182;50.788;7.318;2023-02-25T11:31:29;100175.75;;;6.39;75.87
43125;BME280;49182;50.788;7.318;2023-02-25T11:33:58;100166.31;;;6.37;76.10
43125;BME280;49182;50.788;7.318;2023-02-25T11:36:32;100156.91;;;6.45;75.48
43125;BME280;49182;50.788;7.318;2023-02-25T11:39:18;100163.00;;;6.46;76.98
43125;BME280;49182;50.788;7.318;2023-02-25T11:41:47;100112.94;;;6.16;77.88
43125;BME280;49182;50.788;7.318;2023-02-25T11:44:28;100163.00;;;6.57;75.88
43125;BME280;49182;50.788;7.318;2023-02-25T11:47:04;100150.13;;;6.54;76.85
43125;BME280;49182;50.788;7.318;2023-02-25T11:49:54;100148.06;;;6.69;76.88
43125;BME280;49182;50.788;7.318;2023-02-25T11:52:31;100150.44;;;6.83;76.11
43125;BME280;49182;50.788;7.318;2023-02-25T11:55:12;100148.53;;;6.96;76.55
43125;BME280;49182;50.788;7.318;2023-02-25T11:57:50;100157.69;;;7.02;75.75
43125;BME280;49182;50.788;7.318;2023-02-25T12:00:26;100156.13;;;6.99;75.95
43125;BME280;49182;50.788;7.318;2023-02-25T12:03:09;100148.63;;;6.95;77.39
43125;BME280;49182;50.788;7.318;2023-02-25T12:06:00;100159.47;;;7.01;77.26
43125;BME280;49182;50.788;7.318;2023-02-25T12:08:41;100165.56;;;7.02;73.23
43125;BME280;49182;50.788;7.318;2023-02-25T12:14:42;100204.00;;;6.47;69.92
43125;BME280;49182;50.788;7.318;2023-02-25T12:17:23;100204.19;;;6.11;69.58
43125;BME280;49182;50.788;7.318;2023-02-25T12:20:17;100200.38;;;5.80;70.73
43125;BME280;49182;50.788;7.318;2023-02-25T12:26:05;100186.09;;;5.49;73.81
43125;BME280;49182;50.788;7.318;2023-02-25T12:28:55;100193.44;;;5.44;74.80
43125;BME280;49182;50.788;7.318;2023-02-25T12:37:42;100182.22;;;5.31;75.06
43125;BME280;49182;50.788;7.318;2023-02-25T12:40:26;100186.22;;;5.47;75.10
43125;BME280;49182;50.788;7.318;2023-02-25T12:42:59;100180.63;;;5.52;76.21
43125;BME280;49182;50.788;7.318;2023-02-25T12:45:55;100154.63;;;5.38;75.19
43125;BME280;49182;50.788;7.318;2023-02-25T12:48:40;100183.03;;;5.55;76.86
43125;BME280;49182;50.788;7.318;2023-02-25T12:51:34;100121.94;;;5.19;76.27
43125;BME280;49182;50.788;7.318;2023-02-25T12:54:19;100077.97;;;5.01;75.89
43125;BME280;49182;50.788;7.318;2023-02-25T12:57:02;100164.13;;;5.62;75.88
43125;BME280;49182;50.788;7.318;2023-02-25T12:59:54;100183.88;;;5.90;74.54
43125;BME280;49182;50.788;7.318;2023-02-25T13:02:52;100175.22;;;6.01;71.79
43125;BME280;49182;50.788;7.318;2023-02-25T13:05:50;100172.03;;;6.08;71.75
43125;BME280;49182;50.788;7.318;2023-02-25T13:08:38;100173.69;;;6.09;70.56
43125;BME280;49182;50.788;7.318;2023-02-25T13:11:18;100167.50;;;6.11;69.74
43125;BME280;49182;50.788;7.318;2023-02-25T13:14:10;100166.53;;;6.12;68.00
43125;BME280;49182;50.788;7.318;2023-02-25T13:16:53;100168.22;;;6.24;65.58
43125;BME280;49182;50.788;7.318;2023-02-25T13:19:50;100173.22;;;6.27;68.85
43125;BME280;49182;50.788;7.318;2023-02-25T13:22:32;100166.47;;;6.35;66.76
43125;BME280;49182;50.788;7.318;2023-02-25T13:25:12;100171.59;;;6.59;68.16
43125;BME280;49182;50.788;7.318;2023-02-25T13:28:07;100174.53;;;6.88;65.40
43125;BME280;49182;50.788;7.318;2023-02-25T13:30:42;100188.09;;;7.04;61.79
43125;BME280;49182;50.788;7.318;2023-02-25T13:33:33;100184.09;;;7.32;63.31
43125;BME280;49182;50.788;7.318;2023-02-25T13:36:14;100177.41;;;7.39;66.04
43125;BME280;49182;50.788;7.318;2023-02-25T13:39:06;100188.53;;;7.31;62.33